createdAt,value
2018-02-07T00:00:48.371Z,24.10
2018-02-07T00:03:16.044Z,26.20
2018-02-07T00:05:43.689Z,24.10
2018-02-07T00:08:11.351Z,24.52
2018-02-07T00:10:38.988Z,25.45
2018-02-07T00:13:07.445Z,25.30
2018-02-07T00:15:35.874Z,25.58
2018-02-07T00:18:03.536Z,24.80
2018-02-07T00:20:31.201Z,27.20
2018-02-07T00:22:58.889Z,24.85
2018-02-07T00:25:26.551Z,25.48
2018-02-07T00:27:54.231Z,26.02
2018-02-07T00:30:21.875Z,27.42
2018-02-07T00:32:50.298Z,27.60
2018-02-07T00:35:17.962Z,25.20
2018-02-07T00:37:46.373Z,26.80
2018-02-07T00:40:14.049Z,27.15
2018-02-07T00:42:41.723Z,28.10
2018-02-07T00:45:09.371Z,30.12
2018-02-07T00:47:37.033Z,28.15
2018-02-07T00:50:04.727Z,28.05
2018-02-07T00:52:32.378Z,28.45
2018-02-07T00:55:00.024Z,27.30
2018-02-07T00:57:27.685Z,28.15
2018-02-07T00:59:55.345Z,28.12
2018-02-07T01:02:22.985Z,28.23
2018-02-07T01:04:50.655Z,26.80
2018-02-07T01:07:18.357Z,28.98
2018-02-07T01:09:46.019Z,27.48
2018-02-07T01:12:13.662Z,25.42
2018-02-07T01:14:41.333Z,28.77
2018-02-07T01:17:08.997Z,27.52
2018-02-07T01:19:36.685Z,27.65
2018-02-07T01:22:05.102Z,28.30
2018-02-07T01:24:32.763Z,30.05
2018-02-07T01:27:00.430Z,29.23
2018-02-07T01:29:28.073Z,28.15
2018-02-07T01:31:55.735Z,28.77
2018-02-07T01:34:23.381Z,28.45
2018-02-07T01:36:51.826Z,29.65
2018-02-07T01:39:19.467Z,30.42
2018-02-07T01:41:47.124Z,31.65
2018-02-07T01:44:14.822Z,28.25
2018-02-07T01:46:42.493Z,28.23
2018-02-07T01:49:10.153Z,31.37
2018-02-07T01:51:37.799Z,29.65
2018-02-07T01:54:05.476Z,31.15
2018-02-07T01:56:33.132Z,29.70
2018-02-07T01:59:00.803Z,28.80
2018-02-07T02:01:28.457Z,29.55
2018-02-07T02:03:56.123Z,29.42
2018-02-07T02:06:23.852Z,28.87
2018-02-07T02:08:51.488Z,27.83
2018-02-07T02:11:19.165Z,28.17
2018-02-07T02:13:46.810Z,29.55
2018-02-07T02:16:14.470Z,29.25
2018-02-07T02:18:42.161Z,29.17
2018-02-07T02:21:09.817Z,32.15
2018-02-07T02:23:37.459Z,30.92
2018-02-07T02:26:05.133Z,28.12
2018-02-07T02:28:32.787Z,31.45
2018-02-07T02:31:00.430Z,32.70
2018-02-07T02:33:28.115Z,29.60
2018-02-07T02:36:07.624Z,29.65
2018-02-07T02:38:36.065Z,32.00
2018-02-07T02:41:04.485Z,28.50
2018-02-07T02:43:32.925Z,31.58
2018-02-07T02:46:00.603Z,31.70
2018-02-07T02:48:28.264Z,31.10
2018-02-07T02:50:55.929Z,31.30
2018-02-07T02:53:23.584Z,32.42
2018-02-07T02:55:51.275Z,29.45
2018-02-07T02:58:19.685Z,31.98
2018-02-07T03:00:47.379Z,28.73
2018-02-07T03:03:15.059Z,30.30
2018-02-07T03:05:42.722Z,31.02
2018-02-07T03:08:10.379Z,31.35
2018-02-07T03:10:38.070Z,31.50
2018-02-07T03:13:05.713Z,32.45
2018-02-07T03:15:34.170Z,31.25
2018-02-07T03:18:01.824Z,35.10
2018-02-07T03:20:29.502Z,34.35
2018-02-07T03:22:57.182Z,31.98
2018-02-07T03:25:25.596Z,32.00
2018-02-07T03:27:53.275Z,30.08
2018-02-07T03:30:20.946Z,33.03
2018-02-07T03:32:48.626Z,30.42
2018-02-07T03:35:16.264Z,31.80
2018-02-07T03:37:43.957Z,32.75
2018-02-07T03:40:11.628Z,33.30
2018-02-07T03:42:39.287Z,31.62
2018-02-07T03:45:06.965Z,32.47
2018-02-07T03:47:35.427Z,31.00
2018-02-07T03:50:03.083Z,29.25
2018-02-07T03:52:30.737Z,32.05
2018-02-07T03:54:58.462Z,31.20
2018-02-07T03:57:26.147Z,30.98
2018-02-07T03:59:53.807Z,33.00
2018-02-07T04:02:21.481Z,33.30
2018-02-07T04:04:49.128Z,33.95
2018-02-07T04:07:16.796Z,32.60
2018-02-07T04:09:44.440Z,30.77
2018-02-07T04:12:12.125Z,31.10
2018-02-07T04:14:39.756Z,33.80
2018-02-07T04:17:07.397Z,31.60
2018-02-07T04:19:35.103Z,32.63
2018-02-07T04:22:02.754Z,33.17
2018-02-07T04:24:30.390Z,32.47
2018-02-07T04:26:58.078Z,31.27
2018-02-07T04:29:25.761Z,31.62
2018-02-07T04:31:53.409Z,32.30
2018-02-07T04:34:21.069Z,31.10
2018-02-07T04:36:48.723Z,33.08
2018-02-07T04:39:16.371Z,33.42
2018-02-07T04:41:44.045Z,31.52
2018-02-07T04:44:11.727Z,33.30
2018-02-07T04:46:39.365Z,31.15
2018-02-07T04:49:07.004Z,31.92
2018-02-07T04:51:34.659Z,32.47
2018-02-07T04:54:03.071Z,30.83
2018-02-07T04:56:30.757Z,32.50
2018-02-07T04:58:58.408Z,31.83
2018-02-07T05:01:26.054Z,31.87
2018-02-07T05:03:53.730Z,33.42
2018-02-07T05:06:21.395Z,34.00
2018-02-07T05:08:49.085Z,33.75
2018-02-07T05:11:16.730Z,34.40
2018-02-07T05:13:44.378Z,35.85
2018-02-07T05:16:12.055Z,31.73
2018-02-07T05:18:39.704Z,33.78
2018-02-07T05:21:07.388Z,35.78
2018-02-07T05:23:35.042Z,36.00
2018-02-07T05:26:02.697Z,34.20
2018-02-07T05:28:30.380Z,33.72
2018-02-07T05:30:58.024Z,33.38
2018-02-07T05:33:25.692Z,30.45
2018-02-07T05:35:53.365Z,32.15
2018-02-07T05:38:21.022Z,33.58
2018-02-07T05:40:48.696Z,34.75
2018-02-07T05:43:16.380Z,31.65
2018-02-07T05:45:44.797Z,34.80
2018-02-07T05:48:12.442Z,34.22
2018-02-07T05:50:40.127Z,32.08
2018-02-07T05:53:07.774Z,36.35
2018-02-07T05:55:35.432Z,34.55
2018-02-07T05:58:03.103Z,35.58
2018-02-07T06:00:30.779Z,36.22
2018-02-07T06:02:58.449Z,33.85
2018-02-07T06:05:26.129Z,32.30
2018-02-07T06:07:53.788Z,37.60
2018-02-07T06:10:21.437Z,35.63
2018-02-07T06:12:49.097Z,34.20
2018-02-07T06:15:16.750Z,34.05
2018-02-07T06:17:44.396Z,33.67
2018-02-07T06:20:12.077Z,36.10
2018-02-07T06:22:39.721Z,36.10
2018-02-07T06:25:07.355Z,33.60
2018-02-07T06:27:35.025Z,32.72
2018-02-07T06:30:02.713Z,33.90
2018-02-07T06:32:30.370Z,35.78
2018-02-07T06:34:58.065Z,34.03
2018-02-07T06:37:25.713Z,33.90
2018-02-07T06:39:53.369Z,32.25
2018-02-07T06:42:21.063Z,32.13
2018-02-07T06:44:49.487Z,32.13
2018-02-07T06:47:17.197Z,32.88
2018-02-07T06:49:44.841Z,34.92
2018-02-07T06:52:12.496Z,34.65
2018-02-07T06:54:40.148Z,33.92
2018-02-07T06:57:07.827Z,35.83
2018-02-07T06:59:35.475Z,36.25
2018-02-07T07:02:03.127Z,32.75
2018-02-07T07:04:30.818Z,33.30
2018-02-07T07:06:58.463Z,35.97
2018-02-07T07:09:26.155Z,34.33
2018-02-07T07:11:53.817Z,46.58
2018-02-07T07:14:21.486Z,41.90
2018-02-07T07:16:49.938Z,43.03
2018-02-07T07:19:17.582Z,39.70
2018-02-07T07:21:45.269Z,38.25
2018-02-07T07:24:12.928Z,37.97
2018-02-07T07:26:40.600Z,39.53
2018-02-07T07:29:08.273Z,34.10
2018-02-07T07:31:35.933Z,33.75
2018-02-07T07:34:04.389Z,33.47
2018-02-07T07:36:32.042Z,34.10
2018-02-07T07:38:59.730Z,34.33
2018-02-07T07:41:27.393Z,58.80
2018-02-07T07:43:55.116Z,46.53
2018-02-07T07:46:22.747Z,38.35
2018-02-07T07:48:50.448Z,34.42
2018-02-07T07:51:18.116Z,35.20
2018-02-07T07:53:45.785Z,37.75
2018-02-07T07:56:13.492Z,33.55
2018-02-07T07:58:41.139Z,35.73
2018-02-07T08:01:09.544Z,37.92
2018-02-07T08:03:37.230Z,38.77
2018-02-07T08:06:04.882Z,42.97
2018-02-07T08:08:32.521Z,40.77
2018-02-07T08:11:00.228Z,40.42
2018-02-07T08:13:27.857Z,39.37
2018-02-07T08:15:55.531Z,35.37
2018-02-07T08:18:23.220Z,36.07
2018-02-07T08:20:50.861Z,36.87
2018-02-07T08:23:18.549Z,38.93
2018-02-07T08:25:46.203Z,33.97
2018-02-07T08:28:13.858Z,34.10
2018-02-07T08:30:41.526Z,34.10
2018-02-07T08:33:09.200Z,34.03
2018-02-07T08:35:36.876Z,32.30
2018-02-07T08:38:04.528Z,31.87
2018-02-07T08:40:32.203Z,30.67
2018-02-07T08:43:00.312Z,34.07
2018-02-07T08:45:27.956Z,33.23
2018-02-07T08:47:56.397Z,32.23
2018-02-07T08:50:24.039Z,31.30
2018-02-07T08:52:51.668Z,32.10
2018-02-07T08:55:20.146Z,34.07
2018-02-07T08:57:48.541Z,32.17
2018-02-07T09:00:16.195Z,31.20
2018-02-07T09:02:43.854Z,31.30
2018-02-07T09:05:11.515Z,32.53
2018-02-07T09:07:39.178Z,30.97
2018-02-07T09:10:06.898Z,31.60
2018-02-07T09:12:34.577Z,31.60
2018-02-07T09:15:02.233Z,34.00
2018-02-07T09:17:29.873Z,33.33
2018-02-07T09:19:57.551Z,35.23
2018-02-07T09:22:25.205Z,33.77
2018-02-07T09:24:52.865Z,35.80
2018-02-07T09:27:20.561Z,33.30
2018-02-07T09:29:48.967Z,35.70
2018-02-07T09:32:16.621Z,37.40
2018-02-07T09:34:44.276Z,35.43
2018-02-07T09:37:11.929Z,33.10
2018-02-07T09:39:40.410Z,36.20
2018-02-07T09:42:08.826Z,34.10
2018-02-07T09:44:36.485Z,33.37
2018-02-07T09:47:04.173Z,33.53
2018-02-07T09:49:31.812Z,32.30
2018-02-07T09:51:59.444Z,33.80
2018-02-07T09:54:27.866Z,33.90
2018-02-07T09:56:55.493Z,30.93
2018-02-07T09:59:23.178Z,35.97
2018-02-07T10:01:50.813Z,34.70
2018-02-07T10:04:18.455Z,39.77
2018-02-07T10:06:46.872Z,31.93
2018-02-07T10:09:14.569Z,32.90
2018-02-07T10:11:42.210Z,35.43
2018-02-07T10:14:09.867Z,35.10
2018-02-07T10:16:37.535Z,36.70
2018-02-07T10:19:05.175Z,32.40
2018-02-07T10:21:32.827Z,35.13
2018-02-07T10:24:00.494Z,35.27
2018-02-07T10:26:28.137Z,34.30
2018-02-07T10:28:56.575Z,35.20
2018-02-07T10:31:24.246Z,34.90
2018-02-07T10:33:51.928Z,33.60
2018-02-07T10:36:19.577Z,36.93
2018-02-07T10:38:47.231Z,37.50
2018-02-07T10:41:14.910Z,40.17
2018-02-07T10:43:42.572Z,35.40
2018-02-07T10:46:10.261Z,39.60
2018-02-07T10:48:37.935Z,35.10
2018-02-07T10:51:05.633Z,37.23
2018-02-07T10:53:33.279Z,36.77
2018-02-07T10:56:00.931Z,34.43
2018-02-07T10:58:28.593Z,37.00
2018-02-07T11:00:56.238Z,35.53
2018-02-07T11:03:23.916Z,34.97
2018-02-07T11:05:51.565Z,34.67
2018-02-07T11:08:19.224Z,33.00
2018-02-07T11:10:46.895Z,35.73
2018-02-07T11:13:14.541Z,35.90
2018-02-07T11:15:42.182Z,36.90
2018-02-07T11:18:10.642Z,35.77
2018-02-07T11:20:38.284Z,36.93
2018-02-07T11:23:05.961Z,36.23
2018-02-07T11:25:33.588Z,37.90
2018-02-07T11:28:01.225Z,37.23
2018-02-07T11:30:28.875Z,37.40
2018-02-07T11:32:57.326Z,38.40
2018-02-07T11:35:24.965Z,46.93
2018-02-07T11:37:52.594Z,39.33
2018-02-07T11:40:20.256Z,41.50
2018-02-07T11:42:47.902Z,45.97
2018-02-07T11:45:16.327Z,44.87
2018-02-07T11:47:43.989Z,44.60
2018-02-07T11:50:11.668Z,40.07
2018-02-07T11:52:39.321Z,43.60
2018-02-07T11:55:06.959Z,42.13
2018-02-07T11:57:34.644Z,44.03
2018-02-07T12:00:02.284Z,40.20
2018-02-07T12:02:29.924Z,39.57
2018-02-07T12:04:57.597Z,38.53
2018-02-07T12:07:25.223Z,38.80
2018-02-07T12:09:52.901Z,42.70
2018-02-07T12:12:21.318Z,41.00
2018-02-07T12:14:48.952Z,38.80
2018-02-07T12:17:16.618Z,40.77
2018-02-07T12:19:44.323Z,37.90
2018-02-07T12:22:11.970Z,39.33
2018-02-07T12:24:39.609Z,37.30
2018-02-07T12:27:07.281Z,38.97
2018-02-07T12:29:34.923Z,37.60
2018-02-07T12:32:02.574Z,35.60
2018-02-07T12:34:31.033Z,40.10
2018-02-07T12:36:58.713Z,42.87
2018-02-07T12:39:27.137Z,40.73
2018-02-07T12:41:54.809Z,41.50
2018-02-07T12:44:23.319Z,38.53
2018-02-07T12:46:50.951Z,39.77
2018-02-07T12:49:18.619Z,63.33
2018-02-07T12:51:46.261Z,54.03
2018-02-07T12:54:13.924Z,50.50
2018-02-07T12:56:41.612Z,94.33
2018-02-07T12:59:09.250Z,68.73
2018-02-07T13:01:36.883Z,80.77
2018-02-07T13:04:04.558Z,42.13
2018-02-07T13:06:32.219Z,41.00
2018-02-07T13:08:59.894Z,40.13
2018-02-07T13:11:27.553Z,41.43
2018-02-07T13:13:55.220Z,39.37
2018-02-07T13:16:22.884Z,38.60
2018-02-07T13:18:50.535Z,39.30
2018-02-07T13:21:18.195Z,40.00
2018-02-07T13:23:45.833Z,39.40
2018-02-07T13:26:13.540Z,38.90
2018-02-07T13:28:41.185Z,40.93
2018-02-07T13:31:08.853Z,39.80
2018-02-07T13:33:36.504Z,39.70
2018-02-07T13:36:04.183Z,42.40
2018-02-07T13:38:31.839Z,41.50
2018-02-07T13:40:59.518Z,39.63
2018-02-07T13:43:27.158Z,43.00
2018-02-07T13:45:54.801Z,41.50
2018-02-07T13:48:22.494Z,39.17
2018-02-07T13:50:50.138Z,44.37
2018-02-07T13:53:17.824Z,38.97
2018-02-07T13:55:45.486Z,41.90
2018-02-07T13:58:13.125Z,39.53
2018-02-07T14:00:46.351Z,40.67
2018-02-07T14:03:13.989Z,39.37
2018-02-07T14:05:41.671Z,37.40
2018-02-07T14:08:09.331Z,40.03
2018-02-07T14:10:37.018Z,39.37
2018-02-07T14:13:04.661Z,42.20
2018-02-07T14:15:32.313Z,40.60
2018-02-07T14:17:59.993Z,38.43
2018-02-07T14:20:27.645Z,38.27
2018-02-07T14:22:55.271Z,39.93
2018-02-07T14:25:22.963Z,37.77
2018-02-07T14:27:50.604Z,38.50
2018-02-07T14:30:18.249Z,38.93
2018-02-07T14:32:45.909Z,34.73
2018-02-07T14:35:13.594Z,39.80
2018-02-07T14:37:41.279Z,37.37
2018-02-07T14:40:08.916Z,35.10
2018-02-07T14:42:36.565Z,39.33
2018-02-07T14:45:04.231Z,37.73
2018-02-07T14:47:31.913Z,38.83
2018-02-07T14:49:59.556Z,39.00
2018-02-07T14:52:27.207Z,37.20
2018-02-07T14:54:54.844Z,35.77
2018-02-07T14:57:23.296Z,36.60
2018-02-07T14:59:50.940Z,35.00
2018-02-07T15:02:18.582Z,36.00
2018-02-07T15:04:46.274Z,33.63
2018-02-07T15:07:13.949Z,46.50
2018-02-07T15:09:41.602Z,51.10
2018-02-07T15:12:10.058Z,50.63
2018-02-07T15:14:37.733Z,83.30
2018-02-07T15:17:05.386Z,58.87
2018-02-07T15:19:33.082Z,46.60
2018-02-07T15:22:00.750Z,34.17
2018-02-07T15:24:28.388Z,85.37
2018-02-07T15:29:30.037Z,58.10
2018-02-07T15:31:57.708Z,44.90
2018-02-07T15:34:25.405Z,32.30
2018-02-07T15:36:53.045Z,49.03
2018-02-07T15:39:20.730Z,38.87
2018-02-07T15:41:48.374Z,40.17
2018-02-07T15:44:16.037Z,34.07
2018-02-07T15:46:43.715Z,32.90
2018-02-07T15:49:11.360Z,34.87
2018-02-07T15:51:39.037Z,31.23
2018-02-07T15:54:06.710Z,36.00
2018-02-07T15:56:35.845Z,31.23
2018-02-07T15:59:04.971Z,34.70
2018-02-07T16:01:32.724Z,30.50
2018-02-07T16:04:00.427Z,31.23
2018-02-07T16:06:28.084Z,32.83
2018-02-07T16:08:55.729Z,32.13
2018-02-07T16:11:23.388Z,32.50
2018-02-07T16:13:51.051Z,33.00
2018-02-07T16:16:18.714Z,33.17
2018-02-07T16:18:46.358Z,32.93
2018-02-07T16:21:14.029Z,33.43
2018-02-07T16:23:41.787Z,33.20
2018-02-07T16:26:09.435Z,34.23
2018-02-07T16:28:37.083Z,32.00
2018-02-07T16:31:04.743Z,32.13
2018-02-07T16:33:32.455Z,32.93
2018-02-07T16:36:00.132Z,32.17
2018-02-07T16:38:28.558Z,30.60
2018-02-07T16:40:56.248Z,29.90
2018-02-07T16:43:23.898Z,31.70
2018-02-07T16:45:51.550Z,32.40
2018-02-07T16:48:19.241Z,33.07
2018-02-07T16:50:46.897Z,32.03
2018-02-07T16:53:14.534Z,32.40
2018-02-07T16:55:42.239Z,31.30
2018-02-07T16:58:09.890Z,35.03
2018-02-07T17:00:37.562Z,33.43
2018-02-07T17:03:05.237Z,32.83
2018-02-07T17:05:33.662Z,33.50
2018-02-07T17:08:01.400Z,32.17
2018-02-07T17:10:29.087Z,33.07
2018-02-07T17:12:56.744Z,32.40
2018-02-07T17:15:24.443Z,33.60
2018-02-07T17:17:52.119Z,35.20
2018-02-07T17:20:19.817Z,31.70
2018-02-07T17:22:47.484Z,33.27
2018-02-07T17:25:15.129Z,32.00
2018-02-07T17:27:43.572Z,32.40
2018-02-07T17:30:11.245Z,30.43
2018-02-07T17:32:38.900Z,32.77
2018-02-07T17:35:06.602Z,33.90
2018-02-07T17:37:34.248Z,37.43
2018-02-07T17:40:02.655Z,40.00
2018-02-07T17:42:30.367Z,58.37
2018-02-07T17:44:58.057Z,76.90
2018-02-07T17:47:26.539Z,146.37
2018-02-07T17:49:54.955Z,135.37
2018-02-07T17:52:22.632Z,32.30
2018-02-07T17:54:50.323Z,37.00
2018-02-07T17:57:17.977Z,57.00
2018-02-07T17:59:45.632Z,48.73
2018-02-07T18:02:13.347Z,41.20
2018-02-07T18:04:40.993Z,33.30
2018-02-07T18:07:09.407Z,36.93
2018-02-07T18:09:37.100Z,35.00
2018-02-07T18:12:04.758Z,37.50
2018-02-07T18:14:32.392Z,33.57
2018-02-07T18:17:00.119Z,32.60
2018-02-07T18:19:28.533Z,32.67
2018-02-07T18:21:56.215Z,33.00
2018-02-07T18:24:23.887Z,32.33
2018-02-07T18:26:51.574Z,31.77
2018-02-07T18:29:19.997Z,30.50
2018-02-07T18:31:47.633Z,37.77
2018-02-07T18:34:16.081Z,39.47
2018-02-07T18:36:43.728Z,47.30
2018-02-07T18:39:11.369Z,32.60
2018-02-07T18:41:39.060Z,31.00
2018-02-07T18:44:06.710Z,30.03
2018-02-07T18:46:35.132Z,33.47
2018-02-07T18:49:03.577Z,28.20
2018-02-07T18:51:31.203Z,28.67
2018-02-07T18:53:58.922Z,31.57
2018-02-07T18:56:26.580Z,28.53
2018-02-07T18:58:55.007Z,29.50
2018-02-07T19:01:22.709Z,32.47
2018-02-07T19:03:50.408Z,30.50
2018-02-07T19:06:18.822Z,29.80
2018-02-07T19:08:46.547Z,32.27
2018-02-07T19:11:14.949Z,29.80
2018-02-07T19:13:42.624Z,31.37
2018-02-07T19:16:10.260Z,29.20
2018-02-07T19:18:37.971Z,33.37
2018-02-07T19:21:05.624Z,31.43
2018-02-07T19:23:33.275Z,33.30
2018-02-07T19:26:00.988Z,30.90
2018-02-07T19:28:29.397Z,29.40
2018-02-07T19:30:57.046Z,32.10
2018-02-07T19:33:25.598Z,32.17
2018-02-07T19:35:53.298Z,38.80
2018-02-07T19:38:20.933Z,54.97
2018-02-07T19:40:48.599Z,32.73
2018-02-07T19:43:17.028Z,80.33
2018-02-07T19:45:44.677Z,52.30
2018-02-07T19:48:12.409Z,59.03
2018-02-07T19:50:40.825Z,41.27
2018-02-07T19:53:08.464Z,43.57
2018-02-07T19:55:36.168Z,44.27
2018-02-07T19:58:03.807Z,91.70
2018-02-07T20:00:31.457Z,35.20
2018-02-07T20:02:59.164Z,41.57
2018-02-07T20:05:26.814Z,31.07
2018-02-07T20:07:54.452Z,44.20
2018-02-07T20:10:22.138Z,47.60
2018-02-07T20:12:49.781Z,37.10
2018-02-07T20:15:17.473Z,56.23
2018-02-07T20:17:45.150Z,52.43
2018-02-07T20:20:12.797Z,43.87
2018-02-07T20:22:40.455Z,87.60
2018-02-07T20:25:08.080Z,44.77
2018-02-07T20:27:35.726Z,33.10
2018-02-07T20:30:03.474Z,36.00
2018-02-07T20:32:31.896Z,35.67
2018-02-07T20:34:59.534Z,34.87
2018-02-07T20:37:27.981Z,34.37
2018-02-07T20:39:55.620Z,35.33
2018-02-07T20:42:23.299Z,39.33
2018-02-07T20:44:50.960Z,34.90
2018-02-07T20:47:18.598Z,34.30
2018-02-07T20:49:46.366Z,32.37
2018-02-07T20:52:14.004Z,33.27
2018-02-07T20:54:41.651Z,32.13
2018-02-07T20:57:09.339Z,34.33
2018-02-07T20:59:36.985Z,32.70
2018-02-07T21:02:04.668Z,35.60
2018-02-07T21:04:32.335Z,33.90
2018-02-07T21:06:59.973Z,33.60
2018-02-07T21:09:27.679Z,32.50
2018-02-07T21:11:55.337Z,33.30
2018-02-07T21:14:23.963Z,32.07
2018-02-07T21:16:52.406Z,33.27
2018-02-07T21:19:20.049Z,37.60
2018-02-07T21:21:47.765Z,52.30
2018-02-07T21:24:16.174Z,49.23
2018-02-07T21:26:43.813Z,40.20
2018-02-07T21:29:12.276Z,99.67
2018-02-07T21:31:40.714Z,60.77
2018-02-07T21:34:08.370Z,37.40
2018-02-07T21:36:36.046Z,35.17
2018-02-07T21:39:03.699Z,32.40
2018-02-07T21:41:31.328Z,32.00
2018-02-07T21:43:58.983Z,32.33
2018-02-07T21:46:26.614Z,32.27
2018-02-07T21:48:54.263Z,32.57
2018-02-07T21:51:21.963Z,34.60
2018-02-07T21:53:49.646Z,33.23
2018-02-07T21:56:17.302Z,31.67
2018-02-07T21:58:44.961Z,32.10
2018-02-07T22:01:12.645Z,32.97
2018-02-07T22:03:40.293Z,31.47
2018-02-07T22:06:07.932Z,33.10
2018-02-07T22:08:36.402Z,37.93
2018-02-07T22:11:04.069Z,35.43
2018-02-07T22:13:32.516Z,38.67
2018-02-07T22:16:00.163Z,33.73
2018-02-07T22:18:28.643Z,35.67
2018-02-07T22:20:56.312Z,33.23
2018-02-07T22:23:23.975Z,33.83
2018-02-07T22:25:51.651Z,34.07
2018-02-07T22:28:19.293Z,33.57
2018-02-07T22:30:46.929Z,32.97
2018-02-07T22:33:14.593Z,35.10
2018-02-07T22:35:42.244Z,32.70
2018-02-07T22:38:09.907Z,33.37
2018-02-07T22:40:37.573Z,33.77
2018-02-07T22:43:05.199Z,34.60
2018-02-07T22:45:33.642Z,32.27
2018-02-07T22:48:01.297Z,35.10
2018-02-07T22:50:28.970Z,34.33
2018-02-07T22:52:56.661Z,34.00
2018-02-07T22:55:25.123Z,33.90
2018-02-07T22:57:52.770Z,35.23
2018-02-07T23:00:20.419Z,33.20
2018-02-07T23:02:48.066Z,34.00
2018-02-07T23:05:15.738Z,34.47
2018-02-07T23:07:43.374Z,34.90
2018-02-07T23:10:11.750Z,35.73
2018-02-07T23:12:40.153Z,32.87
2018-02-07T23:15:07.770Z,34.83
2018-02-07T23:17:35.432Z,33.43
2018-02-07T23:20:03.831Z,36.43
2018-02-07T23:22:31.473Z,34.97
2018-02-07T23:24:59.118Z,35.23
2018-02-07T23:27:26.743Z,34.00
2018-02-07T23:29:54.373Z,34.40
2018-02-07T23:32:22.762Z,33.77
2018-02-07T23:34:50.413Z,33.50
2018-02-07T23:37:18.791Z,33.37
2018-02-07T23:39:47.170Z,33.57
2018-02-07T23:42:15.600Z,32.90
2018-02-07T23:44:43.974Z,34.03
2018-02-07T23:47:11.616Z,32.60
2018-02-07T23:49:39.232Z,31.60
2018-02-07T23:52:06.863Z,33.10
2018-02-07T23:54:35.287Z,35.43
2018-02-07T23:57:03.656Z,33.90
2018-02-07T23:59:32.042Z,35.20
